Time;durP1;ratioP1;P1;durP2;ratioP2;P2;SDS_P1;SDS_P2;PMS_P1;PMS_P2;Temp;Humidity;BMP_temperature;BMP_pressure;BME280_temperature;BME280_humidity;BME280_pressure;Samples;Min_cycle;Max_cycle;Signal;HPM_P1;HPM_P2
2022/01/31 00:02:02;;;;;;;16.95;5.28;;;3.70;99.90;;;;;;5034964;28;20049;-66
2022/01/31 00:04:27;;;;;;;19.48;5.00;;;3.70;99.90;;;;;;5042027;28;20508;-65
2022/01/31 00:06:54;;;;;;;19.90;5.55;;;3.70;99.90;;;;;;5054338;28;20071;-65
2022/01/31 00:09:21;;;;;;;17.52;5.40;;;3.70;99.90;;;;;;5055251;28;20076;-65
2022/01/31 00:11:56;;;;;;;17.58;5.60;;;3.70;99.90;;;;;;5054820;28;20478;-65
2022/01/31 00:14:32;;;;;;;17.02;5.38;;;3.80;99.90;;;;;;5050999;28;20116;-66
2022/01/31 00:16:58;;;;;;;20.27;5.90;;;3.80;99.90;;;;;;5035159;28;20085;-65
2022/01/31 00:19:24;;;;;;;23.67;6.05;;;3.80;99.90;;;;;;5035641;28;20061;-65
2022/01/31 00:21:49;;;;;;;21.58;5.95;;;3.80;99.90;;;;;;5057295;28;20048;-66
2022/01/31 00:24:15;;;;;;;21.60;6.63;;;3.80;99.90;;;;;;5051779;28;20469;-66
2022/01/31 00:26:41;;;;;;;21.05;5.95;;;3.70;99.90;;;;;;5052174;28;20128;-65
2022/01/31 00:29:06;;;;;;;20.77;5.60;;;3.70;99.90;;;;;;5040986;28;20053;-65
2022/01/31 00:31:32;;;;;;;17.58;6.13;;;3.70;99.90;;;;;;5044485;28;20432;-64
2022/01/31 00:33:58;;;;;;;23.58;6.75;;;3.70;99.90;;;;;;5050560;28;20056;-65
2022/01/31 00:36:23;;;;;;;17.48;6.45;;;3.70;99.90;;;;;;5041988;28;20040;-65
2022/01/31 00:38:49;;;;;;;17.33;5.72;;;3.70;99.90;;;;;;5054509;28;20479;-65
2022/01/31 00:41:15;;;;;;;19.05;6.28;;;3.70;99.90;;;;;;5040451;28;20155;-64
2022/01/31 00:43:43;;;;;;;21.73;7.75;;;3.70;99.90;;;;;;5054388;28;20057;-65
2022/01/31 00:46:12;;;;;;;15.98;5.95;;;3.70;99.90;;;;;;5054196;28;20127;-64
2022/01/31 00:48:44;;;;;;;20.75;6.22;;;3.70;99.90;;;;;;5047209;28;20048;-64
2022/01/31 00:51:10;;;;;;;16.65;6.28;;;3.70;99.90;;;;;;5034464;28;20046;-65
2022/01/31 00:53:36;;;;;;;21.45;6.68;;;3.80;99.90;;;;;;5034331;28;20145;-64
2022/01/31 00:56:02;;;;;;;18.67;7.10;;;3.80;99.90;;;;;;5050488;28;20041;-65
2022/01/31 00:58:28;;;;;;;24.52;7.18;;;3.80;99.90;;;;;;5055413;28;20460;-67
2022/01/31 01:00:53;;;;;;;18.13;6.53;;;3.80;99.90;;;;;;5052885;28;20057;-66
2022/01/31 01:03:19;;;;;;;21.30;7.32;;;3.80;99.90;;;;;;5034729;28;20512;-65
2022/01/31 01:05:44;;;;;;;22.52;7.53;;;3.90;99.90;;;;;;5034608;28;20456;-65
2022/01/31 01:08:10;;;;;;;18.13;8.15;;;3.80;99.90;;;;;;5052077;28;20477;-66
2022/01/31 01:10:36;;;;;;;20.98;6.88;;;3.80;99.90;;;;;;5045411;28;20327;-66
2022/01/31 01:13:02;;;;;;;16.73;7.32;;;3.80;99.90;;;;;;5050623;28;20047;-64
2022/01/31 01:15:28;;;;;;;17.45;7.47;;;3.90;99.90;;;;;;5053785;28;20063;-66
2022/01/31 01:17:54;;;;;;;20.80;7.65;;;3.90;99.90;;;;;;5048050;28;20057;-67
2022/01/31 01:20:20;;;;;;;17.83;8.18;;;3.90;99.90;;;;;;5068559;28;20048;-66
2022/01/31 01:22:46;;;;;;;20.73;8.10;;;3.80;99.90;;;;;;5041042;28;20060;-66
2022/01/31 01:25:14;;;;;;;21.38;9.00;;;3.90;99.90;;;;;;5033792;28;20053;-65
2022/01/31 01:27:42;;;;;;;21.13;8.52;;;3.80;99.90;;;;;;5039549;28;20053;-65
2022/01/31 01:30:10;;;;;;;19.40;9.07;;;3.80;99.90;;;;;;5048936;28;20053;-65
2022/01/31 01:32:45;;;;;;;17.83;9.32;;;3.80;99.90;;;;;;5052024;28;20049;-66
2022/01/31 01:35:11;;;;;;;22.13;10.20;;;3.80;99.90;;;;;;5070199;28;20049;-66
2022/01/31 01:37:37;;;;;;;23.85;10.20;;;3.80;99.90;;;;;;5053572;28;20505;-66
2022/01/31 01:40:04;;;;;;;24.10;11.07;;;3.80;99.90;;;;;;5049702;28;20073;-65
2022/01/31 01:42:29;;;;;;;23.80;11.90;;;3.70;99.90;;;;;;5051859;28;20060;-65
2022/01/31 01:44:55;;;;;;;19.65;10.82;;;3.70;99.90;;;;;;5053834;28;20045;-66
2022/01/31 01:47:23;;;;;;;23.65;11.05;;;3.70;99.90;;;;;;5052321;28;20114;-66
2022/01/31 01:49:50;;;;;;;25.35;11.50;;;3.70;99.90;;;;;;5038367;28;20053;-67
2022/01/31 01:52:17;;;;;;;22.73;11.13;;;3.60;99.90;;;;;;5051465;28;20056;-66
2022/01/31 01:54:45;;;;;;;23.05;11.73;;;3.60;99.90;;;;;;5050997;28;20049;-66
2022/01/31 01:57:11;;;;;;;20.45;12.23;;;3.60;99.90;;;;;;5051644;28;20049;-64
2022/01/31 01:59:38;;;;;;;21.23;11.27;;;3.50;99.90;;;;;;5042164;28;20107;-65
2022/01/31 02:02:05;;;;;;;22.13;12.57;;;3.50;99.90;;;;;;5033020;28;20089;-66
2022/01/31 02:04:31;;;;;;;22.25;12.32;;;3.40;99.90;;;;;;5033638;28;20049;-66
2022/01/31 02:06:57;;;;;;;23.83;12.70;;;3.40;99.90;;;;;;5032439;28;20049;-65
2022/01/31 02:09:25;;;;;;;24.90;13.15;;;3.30;99.90;;;;;;5040006;28;20076;-66
2022/01/31 02:11:54;;;;;;;23.02;12.52;;;3.20;99.90;;;;;;5040732;28;20171;-66
2022/01/31 02:14:21;;;;;;;25.38;13.32;;;3.20;99.90;;;;;;5045928;28;20050;-65
2022/01/31 02:16:49;;;;;;;20.83;12.10;;;3.20;99.90;;;;;;5057260;28;20166;-66
2022/01/31 02:19:16;;;;;;;20.45;12.23;;;3.20;99.90;;;;;;5048907;28;20044;-67
2022/01/31 02:21:43;;;;;;;22.17;13.13;;;3.20;99.90;;;;;;5046185;28;20477;-66
2022/01/31 02:24:09;;;;;;;26.00;13.70;;;3.20;99.90;;;;;;5055380;28;20049;-67
2022/01/31 02:26:35;;;;;;;20.17;12.80;;;3.20;99.90;;;;;;5054845;28;20453;-66
2022/01/31 02:29:00;;;;;;;23.67;12.98;;;3.20;99.90;;;;;;5044912;28;20116;-66
2022/01/31 02:31:26;;;;;;;19.60;12.55;;;3.20;99.90;;;;;;5044479;28;20059;-65
2022/01/31 02:33:51;;;;;;;22.17;12.57;;;3.20;99.90;;;;;;5035252;28;20058;-67
2022/01/31 02:36:17;;;;;;;23.38;12.05;;;3.20;99.90;;;;;;5071199;28;20052;-65
2022/01/31 02:38:43;;;;;;;21.52;12.43;;;3.20;99.90;;;;;;5073101;28;20061;-66
2022/01/31 02:41:08;;;;;;;19.20;11.55;;;3.30;99.90;;;;;;5052503;28;20434;-65
2022/01/31 02:43:35;;;;;;;18.27;11.90;;;3.30;99.90;;;;;;5059211;28;20072;-65
2022/01/31 02:46:01;;;;;;;19.80;11.88;;;3.30;99.90;;;;;;5035984;28;20053;-66
2022/01/31 02:48:29;;;;;;;19.02;10.48;;;3.20;99.90;;;;;;5036218;28;20061;-67
2022/01/31 02:50:56;;;;;;;19.23;10.20;;;3.30;99.90;;;;;;5047675;28;20095;-66
2022/01/31 02:53:27;;;;;;;16.85;10.48;;;3.30;99.90;;;;;;5035695;28;20045;-65
2022/01/31 02:55:55;;;;;;;13.52;8.75;;;3.30;99.90;;;;;;5034644;28;20048;-67
2022/01/31 02:58:21;;;;;;;12.27;8.52;;;3.30;99.90;;;;;;5049778;28;20045;-66
2022/01/31 03:00:47;;;;;;;13.43;8.55;;;3.30;99.90;;;;;;5037100;28;20064;-67
2022/01/31 03:03:13;;;;;;;11.75;7.95;;;3.20;99.90;;;;;;5072748;28;20068;-68
2022/01/31 03:05:39;;;;;;;11.65;7.30;;;3.30;99.90;;;;;;5054186;28;20057;-65
2022/01/31 03:08:05;;;;;;;11.07;7.07;;;3.20;99.90;;;;;;5055029;28;20130;-66
2022/01/31 03:10:31;;;;;;;14.05;8.05;;;3.20;99.90;;;;;;5053313;28;20052;-67
2022/01/31 03:12:57;;;;;;;12.23;7.95;;;3.30;99.90;;;;;;5070325;28;20113;-67
2022/01/31 03:15:22;;;;;;;13.38;7.82;;;3.30;99.90;;;;;;5044718;28;20056;-66
2022/01/31 03:17:50;;;;;;;10.40;7.25;;;3.30;99.90;;;;;;5052725;28;20045;-66
2022/01/31 03:20:18;;;;;;;9.80;7.75;;;3.30;99.90;;;;;;5035127;28;20055;-67
2022/01/31 03:22:45;;;;;;;14.40;8.00;;;3.30;99.90;;;;;;5054168;28;20049;-66
2022/01/31 03:25:11;;;;;;;10.90;8.30;;;3.30;99.90;;;;;;5050108;28;20048;-66
2022/01/31 03:27:37;;;;;;;12.80;8.25;;;3.40;99.90;;;;;;5035335;28;20120;-65
2022/01/31 03:30:09;;;;;;;13.07;7.68;;;3.50;99.90;;;;;;5036053;28;20401;-67
2022/01/31 03:32:35;;;;;;;13.93;8.20;;;3.50;99.90;;;;;;5038902;28;20053;-65
2022/01/31 03:35:02;;;;;;;14.70;7.95;;;3.50;99.90;;;;;;5047754;28;20346;-68
2022/01/31 03:37:28;;;;;;;9.48;6.53;;;3.60;99.90;;;;;;5057301;28;20067;-67
2022/01/31 03:39:54;;;;;;;12.70;6.93;;;3.80;99.90;;;;;;5058990;28;20059;-65
2022/01/31 03:42:20;;;;;;;14.23;7.88;;;3.90;99.90;;;;;;5055677;28;20052;-65
2022/01/31 03:44:47;;;;;;;14.23;6.72;;;3.90;99.90;;;;;;5052436;28;20076;-66
2022/01/31 03:47:13;;;;;;;11.95;6.82;;;3.90;99.90;;;;;;5058473;28;20150;-66
2022/01/31 03:49:39;;;;;;;15.63;7.25;;;4.00;99.90;;;;;;5038805;28;20095;-66
2022/01/31 03:52:05;;;;;;;14.65;7.03;;;4.10;99.90;;;;;;5038559;28;20045;-64
2022/01/31 03:54:30;;;;;;;21.55;8.13;;;4.30;99.90;;;;;;5039165;28;20049;-67
2022/01/31 03:56:56;;;;;;;19.80;6.88;;;4.40;99.90;;;;;;5047202;28;20056;-66
2022/01/31 03:59:21;;;;;;;19.42;7.30;;;4.40;99.90;;;;;;5058414;28;20072;-66
2022/01/31 04:01:47;;;;;;;18.25;6.78;;;4.50;99.90;;;;;;5045653;28;20440;-66
2022/01/31 04:04:13;;;;;;;19.65;6.75;;;4.50;99.90;;;;;;5042471;28;20102;-65
2022/01/31 04:06:40;;;;;;;21.15;6.25;;;4.60;99.90;;;;;;5041238;28;20103;-66
2022/01/31 04:09:06;;;;;;;21.77;6.00;;;4.70;99.90;;;;;;5038463;28;20049;-66
2022/01/31 04:11:32;;;;;;;21.13;5.45;;;4.80;99.90;;;;;;5055695;28;20064;-65
2022/01/31 04:13:58;;;;;;;24.73;5.05;;;4.90;99.90;;;;;;5056677;28;20056;-67
2022/01/31 04:16:23;;;;;;;23.13;4.72;;;5.00;99.90;;;;;;5039750;28;20378;-68
2022/01/31 04:18:49;;;;;;;26.35;5.10;;;5.10;99.90;;;;;;5049532;28;20037;-65
2022/01/31 04:21:14;;;;;;;17.15;4.47;;;5.20;99.90;;;;;;5038363;28;20477;-65
2022/01/31 04:23:40;;;;;;;18.52;4.38;;;5.20;99.90;;;;;;5055430;28;20048;-65
2022/01/31 04:26:13;;;;;;;18.00;4.65;;;5.30;99.90;;;;;;5039574;28;20057;-65
2022/01/31 04:28:51;;;;;;;14.52;4.18;;;5.30;99.90;;;;;;5052900;28;20049;-65
2022/01/31 04:33:48;;;;;;;15.48;4.13;;;5.40;99.90;;;;;;5039875;28;20045;-68
2022/01/31 04:36:14;;;;;;;17.00;3.50;;;5.50;99.90;;;;;;5040534;28;20083;-66
2022/01/31 04:38:41;;;;;;;16.92;4.50;;;5.40;99.90;;;;;;5057542;28;20053;-66
2022/01/31 04:41:07;;;;;;;19.73;3.90;;;5.40;99.90;;;;;;5055241;28;20041;-66
2022/01/31 04:43:33;;;;;;;18.15;3.58;;;5.60;99.90;;;;;;5074779;28;20057;-67
2022/01/31 04:46:01;;;;;;;15.65;3.22;;;5.50;99.90;;;;;;5046383;28;20052;-67
2022/01/31 04:48:27;;;;;;;13.98;2.78;;;5.50;99.90;;;;;;5046043;28;20510;-66
2022/01/31 04:50:53;;;;;;;22.85;4.10;;;5.50;99.90;;;;;;5075869;28;20129;-66
2022/01/31 04:53:19;;;;;;;14.20;3.00;;;5.70;99.90;;;;;;5057458;28;20399;-66
2022/01/31 04:55:45;;;;;;;14.63;3.53;;;5.50;99.90;;;;;;5074106;28;20061;-66
2022/01/31 04:58:11;;;;;;;14.02;2.95;;;5.50;99.90;;;;;;5047664;28;20507;-68
2022/01/31 05:00:37;;;;;;;15.57;2.90;;;5.40;99.90;;;;;;5037813;28;20555;-67
2022/01/31 05:03:09;;;;;;;16.92;3.50;;;5.40;99.90;;;;;;5064031;28;20484;-66
2022/01/31 05:05:35;;;;;;;16.35;3.20;;;5.40;99.90;;;;;;5042381;28;20501;-68
2022/01/31 05:08:00;;;;;;;18.27;3.45;;;5.40;99.90;;;;;;5037171;28;20166;-65
2022/01/31 05:10:26;;;;;;;21.90;3.53;;;5.40;99.90;;;;;;5055169;28;20049;-67
2022/01/31 05:12:51;;;;;;;12.70;3.58;;;5.40;99.90;;;;;;5054560;28;20044;-67
2022/01/31 05:15:17;;;;;;;18.30;3.67;;;5.40;99.90;;;;;;5045723;28;20132;-65
2022/01/31 05:17:43;;;;;;;18.10;3.75;;;5.40;99.90;;;;;;5040957;28;20057;-64
2022/01/31 05:20:09;;;;;;;14.90;3.10;;;5.50;99.90;;;;;;5053662;28;20120;-67
2022/01/31 05:22:34;;;;;;;16.48;3.15;;;5.40;99.90;;;;;;5072690;28;20485;-67
2022/01/31 05:25:00;;;;;;;20.05;3.75;;;5.30;99.90;;;;;;5039429;28;20473;-67
2022/01/31 05:27:25;;;;;;;19.42;3.72;;;5.30;99.90;;;;;;5040513;28;20052;-66
2022/01/31 05:29:51;;;;;;;23.02;3.47;;;5.20;99.90;;;;;;5071235;28;20464;-65
2022/01/31 05:32:16;;;;;;;13.27;2.53;;;5.30;99.90;;;;;;5042089;28;20542;-66
2022/01/31 05:34:42;;;;;;;11.93;2.28;;;5.30;99.90;;;;;;5047432;28;20076;-67
2022/01/31 05:37:07;;;;;;;12.77;3.30;;;5.30;99.90;;;;;;5036690;28;20079;-67
2022/01/31 05:39:33;;;;;;;7.43;1.55;;;5.30;99.90;;;;;;5036628;28;20049;-66
2022/01/31 05:41:59;;;;;;;7.55;1.88;;;5.50;99.90;;;;;;5054826;28;20057;-65
2022/01/31 05:44:25;;;;;;;8.93;1.52;;;4.90;99.90;;;;;;5036920;28;20114;-66
2022/01/31 05:46:51;;;;;;;2.47;1.33;;;4.80;99.90;;;;;;5059435;28;20052;-66
2022/01/31 05:49:17;;;;;;;5.65;1.25;;;4.70;99.90;;;;;;5043762;28;20078;-65
2022/01/31 05:51:54;;;;;;;4.35;1.30;;;4.60;99.90;;;;;;5036457;28;20435;-66
2022/01/31 05:54:21;;;;;;;2.65;1.10;;;4.50;99.90;;;;;;5053445;28;20053;-67
2022/01/31 05:56:46;;;;;;;3.10;0.90;;;4.50;99.90;;;;;;5054634;28;20052;-65
2022/01/31 05:59:12;;;;;;;8.07;2.28;;;4.60;99.90;;;;;;5044294;28;20137;-66
2022/01/31 06:01:39;;;;;;;3.90;1.50;;;4.50;99.90;;;;;;5042016;28;20120;-65
2022/01/31 06:04:08;;;;;;;4.00;1.15;;;4.50;99.90;;;;;;5036341;28;20049;-67
2022/01/31 06:06:34;;;;;;;6.15;1.38;;;4.50;99.90;;;;;;5049243;28;20094;-67
2022/01/31 06:09:00;;;;;;;6.38;1.20;;;4.50;99.90;;;;;;5054307;28;20049;-65
2022/01/31 06:11:26;;;;;;;3.83;1.02;;;4.40;99.90;;;;;;5038721;28;20048;-67
2022/01/31 06:13:54;;;;;;;5.63;1.10;;;4.40;99.90;;;;;;5048124;28;20375;-66
2022/01/31 06:16:20;;;;;;;6.25;1.10;;;4.40;99.90;;;;;;5036792;28;20064;-65
2022/01/31 06:18:46;;;;;;;4.22;1.27;;;4.40;99.90;;;;;;5054904;28;20064;-67
2022/01/31 06:21:12;;;;;;;6.32;1.25;;;4.40;99.90;;;;;;5046753;28;20072;-66
2022/01/31 06:23:38;;;;;;;5.82;1.30;;;4.40;99.90;;;;;;5042317;28;20517;-67
2022/01/31 06:26:04;;;;;;;7.40;1.80;;;4.40;99.90;;;;;;5054295;28;20060;-66
2022/01/31 06:28:29;;;;;;;9.88;1.65;;;4.40;99.90;;;;;;5035699;28;20110;-68
2022/01/31 06:30:55;;;;;;;13.13;1.77;;;4.40;99.90;;;;;;5043655;28;20377;-65
2022/01/31 06:33:21;;;;;;;13.50;2.00;;;4.50;99.90;;;;;;5035552;28;20102;-65
2022/01/31 06:35:47;;;;;;;9.93;1.83;;;4.50;99.90;;;;;;5036749;28;20055;-67
2022/01/31 06:38:13;;;;;;;11.15;2.25;;;4.50;99.90;;;;;;5127320;22;20149;-68
2022/01/31 06:40:40;;;;;;;13.75;3.08;;;4.70;99.90;;;;;;5055381;28;20048;-65
2022/01/31 06:43:05;;;;;;;8.35;1.58;;;4.60;99.90;;;;;;5054998;28;20095;-66
2022/01/31 06:45:31;;;;;;;11.70;2.10;;;4.60;99.90;;;;;;5054741;28;20448;-65
2022/01/31 06:47:57;;;;;;;14.15;2.95;;;4.50;99.90;;;;;;5055518;28;20048;-67
2022/01/31 06:50:23;;;;;;;5.53;1.50;;;4.70;99.90;;;;;;5054941;28;20392;-66
2022/01/31 06:52:53;;;;;;;11.93;2.65;;;4.70;99.90;;;;;;5054716;28;20098;-66
2022/01/31 06:55:20;;;;;;;9.32;2.08;;;4.70;99.90;;;;;;5073215;28;20075;-65
2022/01/31 06:57:46;;;;;;;15.85;2.72;;;4.70;99.90;;;;;;5054732;28;20079;-66
2022/01/31 07:00:13;;;;;;;8.98;1.77;;;4.70;99.90;;;;;;5054698;28;20442;-65
2022/01/31 07:02:39;;;;;;;12.02;2.28;;;4.80;99.90;;;;;;5038136;28;20051;-64
2022/01/31 07:05:05;;;;;;;10.80;2.03;;;4.80;99.90;;;;;;5072540;28;20177;-68
2022/01/31 07:07:31;;;;;;;11.13;2.30;;;4.80;99.90;;;;;;5053653;28;20476;-67
2022/01/31 07:09:57;;;;;;;13.85;2.47;;;4.90;99.90;;;;;;5053388;28;20064;-65
2022/01/31 07:12:30;;;;;;;7.80;2.28;;;4.90;99.90;;;;;;5053492;28;20049;-66
2022/01/31 07:14:56;;;;;;;10.25;2.28;;;5.00;99.90;;;;;;5072527;28;20044;-65
2022/01/31 07:17:21;;;;;;;9.02;1.70;;;4.90;99.90;;;;;;5053772;28;20110;-65
2022/01/31 07:19:47;;;;;;;8.77;1.77;;;4.90;99.90;;;;;;5053672;28;20048;-66
2022/01/31 07:22:14;;;;;;;12.35;2.22;;;4.90;99.90;;;;;;5037862;28;20472;-66
2022/01/31 07:24:51;;;;;;;6.25;1.48;;;4.90;99.90;;;;;;5054773;28;20468;-65
2022/01/31 07:27:17;;;;;;;4.40;1.08;;;4.90;99.90;;;;;;5053396;28;20067;-65
2022/01/31 07:29:44;;;;;;;5.13;1.35;;;4.90;99.90;;;;;;5056507;28;20056;-66
2022/01/31 07:32:11;;;;;;;4.50;1.30;;;4.80;99.90;;;;;;5071772;28;20408;-67
2022/01/31 07:34:39;;;;;;;7.38;1.38;;;4.80;99.90;;;;;;5054023;28;20049;-67
2022/01/31 07:37:04;;;;;;;11.27;1.55;;;4.80;99.90;;;;;;5054338;28;20123;-67
2022/01/31 07:39:30;;;;;;;6.45;1.20;;;4.80;99.90;;;;;;5053769;28;20209;-67
2022/01/31 07:41:55;;;;;;;7.95;1.83;;;4.70;99.90;;;;;;5053598;28;20056;-64
2022/01/31 07:44:21;;;;;;;6.05;1.45;;;4.70;99.90;;;;;;5054592;28;20073;-66
2022/01/31 07:46:49;;;;;;;9.20;1.85;;;4.70;99.90;;;;;;5053762;28;20080;-67
2022/01/31 07:49:15;;;;;;;8.35;1.70;;;4.80;99.90;;;;;;5072429;28;20049;-66
2022/01/31 07:51:41;;;;;;;10.73;2.70;;;4.70;99.90;;;;;;5067331;28;20047;-67
2022/01/31 07:54:08;;;;;;;5.72;1.75;;;4.80;99.90;;;;;;5053267;28;20044;-66
2022/01/31 07:56:33;;;;;;;8.23;1.50;;;4.70;99.90;;;;;;5070251;28;20158;-65
2022/01/31 07:58:59;;;;;;;7.40;1.90;;;4.70;99.90;;;;;;5059378;23;20516;-66
2022/01/31 08:01:28;;;;;;;8.52;2.28;;;4.70;99.90;;;;;;5032795;28;20052;-65
2022/01/31 08:03:54;;;;;;;6.80;1.63;;;4.70;99.90;;;;;;5045204;28;20370;-67
2022/01/31 08:06:20;;;;;;;10.60;2.00;;;4.80;99.90;;;;;;5039749;28;20182;-65
2022/01/31 08:08:46;;;;;;;5.60;1.60;;;4.80;99.90;;;;;;5022472;28;20101;-66
2022/01/31 08:11:12;;;;;;;9.25;2.25;;;4.90;99.90;;;;;;5026098;28;20064;-66
2022/01/31 08:13:38;;;;;;;8.90;2.38;;;4.90;99.90;;;;;;5044385;28;20132;-66
2022/01/31 08:18:34;;;;;;;11.73;2.45;;;5.00;99.90;;;;;;5047623;28;20050;-66
2022/01/31 08:21:00;;;;;;;11.38;2.40;;;5.00;99.90;;;;;;5045604;28;20503;-65
2022/01/31 08:23:26;;;;;;;13.60;2.47;;;5.10;99.90;;;;;;5024686;28;20064;-65
2022/01/31 08:25:52;;;;;;;9.07;2.35;;;5.10;99.90;;;;;;5049476;28;20052;-64
2022/01/31 08:28:21;;;;;;;10.32;2.65;;;5.10;99.90;;;;;;5053594;28;20059;-64
2022/01/31 08:30:58;;;;;;;12.38;2.35;;;5.10;99.90;;;;;;5055412;28;20472;-65
2022/01/31 08:33:39;;;;;;;16.17;3.28;;;5.20;99.90;;;;;;5064900;28;20055;-64
2022/01/31 08:36:07;;;;;;;12.80;2.17;;;5.20;99.90;;;;;;5074256;28;20492;-66
2022/01/31 08:38:36;;;;;;;13.50;2.20;;;5.30;99.90;;;;;;5073678;28;20045;-65
2022/01/31 08:41:03;;;;;;;10.57;2.20;;;5.30;99.90;;;;;;5062993;28;20077;-64
2022/01/31 08:43:29;;;;;;;13.88;2.80;;;5.40;99.90;;;;;;5037761;28;20056;-64
2022/01/31 08:45:56;;;;;;;13.77;2.58;;;5.40;99.90;;;;;;5054321;28;20061;-66
2022/01/31 08:48:24;;;;;;;13.30;2.78;;;5.50;99.90;;;;;;5054329;28;20127;-63
2022/01/31 08:50:50;;;;;;;13.07;2.53;;;5.50;99.90;;;;;;5055599;28;20068;-67
2022/01/31 08:53:16;;;;;;;17.50;3.20;;;5.60;99.90;;;;;;5053918;28;20053;-66
2022/01/31 08:55:48;;;;;;;15.45;3.28;;;5.60;99.90;;;;;;5053444;28;20072;-64
2022/01/31 08:58:14;;;;;;;13.43;2.70;;;5.70;99.90;;;;;;5054112;28;20045;-66
2022/01/31 09:00:40;;;;;;;17.38;3.00;;;5.70;99.90;;;;;;5052938;28;21244;-66
2022/01/31 09:05:38;;;;;;;7.60;2.05;;;5.70;99.90;;;;;;5053455;28;20068;-66
2022/01/31 09:08:04;;;;;;;8.32;2.10;;;5.70;99.90;;;;;;5054572;28;20072;-65
2022/01/31 09:10:30;;;;;;;9.45;2.50;;;5.60;99.90;;;;;;5053779;28;20570;-66
2022/01/31 09:12:55;;;;;;;10.05;2.60;;;5.70;99.90;;;;;;5052505;28;20059;-65
2022/01/31 09:15:21;;;;;;;11.90;2.55;;;5.80;99.90;;;;;;5036787;28;20190;-64
2022/01/31 09:17:47;;;;;;;5.70;1.85;;;5.90;99.90;;;;;;5036982;28;20087;-65
2022/01/31 09:20:13;;;;;;;10.88;2.35;;;5.80;99.90;;;;;;5053010;28;20440;-65
2022/01/31 09:22:39;;;;;;;9.02;1.77;;;5.90;99.90;;;;;;5052168;28;20081;-64
2022/01/31 09:25:05;;;;;;;10.05;1.65;;;6.00;99.90;;;;;;5052802;28;20075;-65
2022/01/31 09:27:31;;;;;;;6.15;1.63;;;6.00;99.90;;;;;;5053084;28;20057;-66
2022/01/31 09:29:57;;;;;;;6.93;1.55;;;6.10;99.90;;;;;;5053137;28;20057;-65
2022/01/31 09:32:24;;;;;;;4.63;1.65;;;6.10;99.90;;;;;;5049782;28;20393;-67
2022/01/31 09:34:51;;;;;;;6.25;1.70;;;6.10;99.90;;;;;;5053278;28;20049;-66
2022/01/31 09:37:19;;;;;;;9.80;2.08;;;6.20;99.90;;;;;;5052749;28;20106;-65
2022/01/31 09:39:46;;;;;;;6.28;1.95;;;6.20;99.90;;;;;;5053649;28;20049;-64
2022/01/31 09:42:15;;;;;;;7.30;1.85;;;6.30;99.90;;;;;;5053526;28;20123;-66
2022/01/31 09:45:03;;;;;;;7.18;1.52;;;6.30;99.90;;;;;;5054189;28;20071;-63
2022/01/31 09:50:13;;;;;;;8.32;1.70;;;6.30;99.90;;;;;;5051468;28;20052;-65
2022/01/31 09:52:38;;;;;;;11.05;1.52;;;6.40;99.90;;;;;;5052417;28;20045;-64
2022/01/31 09:55:06;;;;;;;6.28;1.63;;;6.40;99.90;;;;;;5053330;28;20067;-65
2022/01/31 09:57:31;;;;;;;6.00;1.45;;;6.40;99.90;;;;;;5051895;28;20124;-66
2022/01/31 09:59:57;;;;;;;9.88;1.67;;;6.40;99.90;;;;;;5052432;28;20131;-64
2022/01/31 10:02:22;;;;;;;10.95;1.83;;;6.40;99.90;;;;;;5053133;28;20068;-65
2022/01/31 10:04:48;;;;;;;5.75;1.50;;;6.60;99.90;;;;;;5053242;28;20055;-64
2022/01/31 10:07:15;;;;;;;7.10;1.40;;;6.50;99.90;;;;;;5053700;28;20460;-64
2022/01/31 10:09:45;;;;;;;6.30;1.50;;;6.60;99.90;;;;;;5052041;28;20099;-63
2022/01/31 10:17:40;;;;;;;11.32;1.48;;;6.50;99.90;;;;;;5051502;28;20124;-65
2022/01/31 10:20:24;;;;;;;11.05;1.85;;;6.60;99.90;;;;;;5053891;28;20128;-64
2022/01/31 10:22:50;;;;;;;11.02;2.08;;;6.60;99.90;;;;;;5053506;28;20057;-66
2022/01/31 10:25:19;;;;;;;6.05;1.67;;;6.70;99.90;;;;;;5052700;28;20061;-64
2022/01/31 10:27:47;;;;;;;7.78;1.65;;;6.70;99.90;;;;;;5051823;28;20069;-65
2022/01/31 10:30:15;;;;;;;7.45;1.17;;;6.80;99.90;;;;;;5051389;28;20056;-66
2022/01/31 10:32:47;;;;;;;9.38;2.05;;;6.70;99.90;;;;;;5051315;28;20045;-65
2022/01/31 10:35:18;;;;;;;8.60;1.45;;;6.70;99.90;;;;;;5049766;28;20064;-64
2022/01/31 10:37:45;;;;;;;5.68;1.60;;;6.80;99.90;;;;;;5051903;28;20107;-65
2022/01/31 10:56:51;;;;;;;8.18;1.60;;;7.10;99.90;;;;;;5050695;28;20049;-65
2022/01/31 10:59:29;;;;;;;4.78;1.00;;;7.00;99.90;;;;;;5050633;28;20087;-65
2022/01/31 11:01:57;;;;;;;5.68;1.17;;;7.10;99.90;;;;;;5050629;28;20124;-68
2022/01/31 11:04:23;;;;;;;6.88;1.30;;;7.20;99.90;;;;;;5051218;28;20132;-65
2022/01/31 11:06:56;;;;;;;13.00;1.67;;;7.20;99.90;;;;;;5051030;28;20544;-64
2022/01/31 11:09:21;;;;;;;1.73;0.90;;;7.20;99.90;;;;;;5049948;28;20049;-65
2022/01/31 11:11:49;;;;;;;8.95;1.75;;;7.20;99.90;;;;;;5051633;28;20049;-65
2022/01/31 11:14:16;;;;;;;4.18;1.08;;;7.30;99.90;;;;;;5050639;28;20049;-65
2022/01/31 11:16:44;;;;;;;4.45;2.08;;;7.30;99.90;;;;;;5050658;28;20440;-64
2022/01/31 11:19:11;;;;;;;9.35;1.60;;;7.40;99.90;;;;;;5050476;28;20059;-67
2022/01/31 11:21:46;;;;;;;7.05;2.00;;;7.50;99.90;;;;;;5054846;28;20048;-66
2022/01/31 11:24:19;;;;;;;4.80;1.60;;;7.50;99.90;;;;;;5052220;28;20125;-68
2022/01/31 11:27:11;;;;;;;7.60;1.30;;;7.50;99.90;;;;;;5050405;28;20049;-66
2022/01/31 11:29:42;;;;;;;5.00;1.23;;;7.60;99.90;;;;;;5048971;28;20469;-67
2022/01/31 11:32:09;;;;;;;12.37;2.20;;;7.70;99.90;;;;;;5049795;28;20282;-66
2022/01/31 11:34:39;;;;;;;7.97;1.63;;;7.90;99.90;;;;;;5050479;28;20107;-67
2022/01/31 11:37:07;;;;;;;12.05;2.08;;;7.90;99.90;;;;;;5051023;28;20052;-66
2022/01/31 11:39:33;;;;;;;8.88;1.95;;;8.00;99.90;;;;;;5040791;28;20498;-65
2022/01/31 11:42:01;;;;;;;10.25;1.80;;;8.10;99.90;;;;;;5043505;28;20128;-67
2022/01/31 11:44:59;;;;;;;7.03;1.25;;;8.20;99.90;;;;;;5051783;28;20413;-66
2022/01/31 11:47:27;;;;;;;7.78;1.75;;;8.30;99.90;;;;;;5043936;28;20049;-66
2022/01/31 11:50:03;;;;;;;10.30;1.95;;;8.40;99.90;;;;;;5050534;28;20131;-66
2022/01/31 11:52:48;;;;;;;9.77;1.88;;;8.50;99.90;;;;;;5050962;28;20056;-66
2022/01/31 11:55:20;;;;;;;7.90;1.90;;;8.60;99.90;;;;;;5055570;28;20068;-66
2022/01/31 11:57:51;;;;;;;7.57;1.90;;;8.70;99.90;;;;;;5055152;28;20056;-65
2022/01/31 12:00:19;;;;;;;11.35;1.90;;;8.80;99.90;;;;;;5053683;28;20349;-65
2022/01/31 12:02:51;;;;;;;9.57;1.83;;;8.80;99.90;;;;;;5055282;28;20133;-65
2022/01/31 12:05:28;;;;;;;15.02;2.00;;;8.80;99.90;;;;;;5054622;28;20048;-65
2022/01/31 12:08:07;;;;;;;13.85;2.22;;;8.80;99.90;;;;;;5055795;28;20131;-65
2022/01/31 12:10:41;;;;;;;9.77;2.33;;;8.80;99.90;;;;;;5056384;28;20118;-64
2022/01/31 12:13:39;;;;;;;8.45;2.30;;;8.80;99.90;;;;;;5054889;28;20124;-65
2022/01/31 12:24:04;;;;;;;10.25;1.77;;;8.80;99.90;;;;;;5054643;28;20057;-66
2022/01/31 12:26:32;;;;;;;7.53;1.40;;;8.80;99.90;;;;;;5054189;28;20057;-65
2022/01/31 12:29:13;;;;;;;9.55;1.27;;;8.80;99.90;;;;;;5054914;28;20386;-64
2022/01/31 12:32:15;;;;;;;3.63;1.00;;;8.70;99.90;;;;;;5052047;28;20492;-65
2022/01/31 12:34:47;;;;;;;6.18;1.42;;;8.60;99.90;;;;;;5038257;28;20136;-67
2022/01/31 12:37:31;;;;;;;7.63;1.38;;;8.70;99.90;;;;;;5054414;28;20092;-66
2022/01/31 12:40:15;;;;;;;7.22;1.70;;;8.70;99.90;;;;;;5054425;28;20110;-64
2022/01/31 12:45:54;;;;;;;6.35;1.30;;;8.60;99.90;;;;;;5054000;28;20477;-64
2022/01/31 12:48:23;;;;;;;7.25;1.30;;;8.60;99.90;;;;;;5034520;28;20106;-66
2022/01/31 12:50:48;;;;;;;8.00;1.70;;;8.50;99.90;;;;;;5053239;28;20041;-65
2022/01/31 12:53:23;;;;;;;7.90;1.10;;;8.50;99.90;;;;;;5054417;28;20098;-66
2022/01/31 12:56:08;;;;;;;9.65;1.42;;;8.40;99.90;;;;;;5053744;28;20053;-65
2022/01/31 12:58:37;;;;;;;8.15;1.52;;;8.40;99.90;;;;;;5054574;28;20052;-66
2022/01/31 13:01:19;;;;;;;5.90;1.40;;;8.40;99.90;;;;;;5052903;28;20053;-65
2022/01/31 13:03:47;;;;;;;10.77;1.85;;;8.40;99.90;;;;;;5055128;28;20053;-65
2022/01/31 13:06:31;;;;;;;7.30;1.40;;;8.40;99.90;;;;;;5052969;28;20060;-66
2022/01/31 13:09:03;;;;;;;7.15;1.30;;;8.40;99.90;;;;;;5055187;28;20056;-66
2022/01/31 13:11:30;;;;;;;7.75;1.70;;;8.40;99.90;;;;;;5053693;28;20088;-65
2022/01/31 13:14:25;;;;;;;7.97;1.67;;;8.40;99.90;;;;;;5053952;28;20049;-67
2022/01/31 13:17:15;;;;;;;4.47;0.90;;;8.40;99.90;;;;;;5053084;28;20413;-68
2022/01/31 13:19:45;;;;;;;8.45;1.65;;;8.30;99.90;;;;;;5056943;28;20040;-66
2022/01/31 13:22:26;;;;;;;11.73;1.70;;;8.30;99.90;;;;;;5055371;28;20045;-67
2022/01/31 13:24:55;;;;;;;8.15;1.58;;;8.20;99.90;;;;;;5054002;28;20559;-67
2022/01/31 13:27:30;;;;;;;7.80;1.52;;;8.20;99.90;;;;;;5054053;28;20060;-65
2022/01/31 13:29:55;;;;;;;8.73;1.65;;;8.20;99.90;;;;;;5054812;28;20049;-65
2022/01/31 13:32:30;;;;;;;11.00;1.88;;;8.30;99.90;;;;;;5053776;28;20505;-66
2022/01/31 13:35:06;;;;;;;10.18;1.50;;;8.30;99.90;;;;;;5053349;28;20053;-64
2022/01/31 13:37:51;;;;;;;12.50;2.20;;;8.20;99.90;;;;;;5054691;28;20131;-65
2022/01/31 13:40:34;;;;;;;9.40;2.30;;;8.20;99.90;;;;;;5055227;28;20123;-66